createdAt,value
2023-04-15T00:01:06.056Z,7.09
2023-04-15T00:03:34.716Z,7.10
2023-04-15T00:06:03.373Z,7.13
2023-04-15T00:08:31.296Z,7.07
2023-04-15T00:11:03.282Z,7.04
2023-04-15T00:13:30.635Z,7.00
2023-04-15T00:15:57.459Z,7.02
2023-04-15T00:18:25.053Z,7.12
2023-04-15T00:20:52.597Z,7.00
2023-04-15T00:23:19.492Z,7.07
2023-04-15T00:25:48.050Z,7.04
2023-04-15T00:28:14.763Z,6.98
2023-04-15T00:30:43.415Z,6.95
2023-04-15T00:33:10.258Z,6.85
2023-04-15T00:35:38.679Z,6.72
2023-04-15T00:38:07.445Z,6.73
2023-04-15T00:40:34.819Z,6.58
2023-04-15T00:43:01.931Z,6.60
2023-04-15T00:45:29.608Z,6.60
2023-04-15T00:47:57.580Z,6.53
2023-04-15T00:50:24.226Z,6.50
2023-04-15T00:52:50.806Z,6.42
2023-04-15T00:55:17.459Z,6.39
2023-04-15T00:57:44.793Z,6.36
2023-04-15T01:00:13.828Z,6.31
2023-04-15T01:02:43.397Z,6.27
2023-04-15T01:05:10.290Z,6.20
2023-04-15T01:07:37.128Z,6.13
2023-04-15T01:10:04.808Z,6.08
2023-04-15T01:12:33.393Z,6.15
2023-04-15T01:15:00.482Z,6.15
2023-04-15T01:17:27.357Z,6.11
2023-04-15T01:19:59.810Z,6.04
2023-04-15T01:22:27.874Z,6.06
2023-04-15T01:25:18.564Z,6.01
2023-04-15T01:27:45.487Z,5.92
2023-04-15T01:30:12.357Z,5.89
2023-04-15T01:32:39.208Z,5.78
2023-04-15T01:35:06.266Z,5.86
2023-04-15T01:37:33.719Z,5.86
2023-04-15T01:40:00.291Z,5.83
2023-04-15T01:42:27.638Z,5.73
2023-04-15T01:44:54.454Z,5.78
2023-04-15T01:47:20.996Z,5.75
2023-04-15T01:49:47.587Z,5.72
2023-04-15T01:52:14.414Z,5.68
2023-04-15T01:54:41.001Z,5.69
2023-04-15T01:57:07.520Z,5.67
2023-04-15T01:59:34.055Z,5.71
2023-04-15T02:02:00.597Z,5.73
2023-04-15T02:04:28.090Z,5.69
2023-04-15T02:06:54.780Z,5.73
2023-04-15T02:09:21.367Z,5.68
2023-04-15T02:11:47.896Z,5.70
2023-04-15T02:14:14.528Z,5.70
2023-04-15T02:16:41.339Z,5.71
2023-04-15T02:19:08.117Z,5.70
2023-04-15T02:21:35.494Z,5.67
2023-04-15T02:24:02.565Z,5.68
2023-04-15T02:26:32.106Z,5.61
2023-04-15T02:28:58.979Z,5.60
2023-04-15T02:31:26.077Z,5.58
2023-04-15T02:33:52.643Z,5.57
2023-04-15T02:36:19.738Z,5.52
2023-04-15T02:38:46.243Z,5.49
2023-04-15T02:41:12.798Z,5.47
2023-04-15T02:43:40.001Z,5.51
2023-04-15T02:46:06.792Z,5.45
2023-04-15T02:48:33.422Z,5.43
2023-04-15T02:51:20.047Z,5.42
2023-04-15T02:53:48.486Z,5.42
2023-04-15T02:56:15.997Z,5.33
2023-04-15T02:58:43.642Z,5.37
2023-04-15T03:01:10.226Z,5.39
2023-04-15T03:03:36.912Z,5.36
2023-04-15T03:06:03.685Z,5.30
2023-04-15T03:08:30.261Z,5.35
2023-04-15T03:11:00.705Z,5.34
2023-04-15T03:13:27.289Z,5.24
2023-04-15T03:15:53.837Z,5.19
2023-04-15T03:18:20.410Z,5.17
2023-04-15T03:20:47.206Z,5.30
2023-04-15T03:23:13.794Z,5.23
2023-04-15T03:25:40.539Z,5.16
2023-04-15T03:28:07.113Z,5.10
2023-04-15T03:30:33.711Z,5.12
2023-04-15T03:33:00.535Z,5.07
2023-04-15T03:35:27.142Z,5.04
2023-04-15T03:37:53.693Z,4.99
2023-04-15T03:40:21.621Z,5.02
2023-04-15T03:42:48.245Z,5.01
2023-04-15T03:45:14.821Z,5.02
2023-04-15T03:47:41.649Z,5.05
2023-04-15T03:50:09.140Z,5.06
2023-04-15T03:52:35.737Z,5.12
2023-04-15T03:55:02.333Z,5.11
2023-04-15T03:57:28.932Z,5.03
2023-04-15T03:59:55.517Z,5.03
2023-04-15T04:02:23.229Z,5.00
2023-04-15T04:04:50.089Z,4.98
2023-04-15T04:07:17.277Z,4.98
2023-04-15T04:09:45.187Z,4.93
2023-04-15T04:12:13.353Z,4.83
2023-04-15T04:14:39.974Z,4.77
2023-04-15T04:17:06.804Z,4.72
2023-04-15T04:19:33.454Z,4.64
2023-04-15T04:22:00.087Z,4.67
2023-04-15T04:24:26.703Z,4.77
2023-04-15T04:26:53.396Z,4.69
2023-04-15T04:29:19.932Z,4.77
2023-04-15T04:31:48.656Z,4.77
2023-04-15T04:34:16.058Z,4.81
2023-04-15T04:36:42.712Z,4.84
2023-04-15T04:39:09.240Z,4.76
2023-04-15T04:41:36.003Z,4.79
2023-04-15T04:44:02.531Z,4.75
2023-04-15T04:46:29.217Z,4.68
2023-04-15T04:48:55.810Z,4.65
2023-04-15T04:51:22.483Z,4.60
2023-04-15T04:53:49.046Z,4.56
2023-04-15T04:56:15.616Z,4.56
2023-04-15T04:58:42.549Z,4.56
2023-04-15T05:01:09.228Z,4.56
2023-04-15T05:03:36.555Z,4.55
2023-04-15T05:06:06.148Z,4.61
2023-04-15T05:08:32.851Z,4.64
2023-04-15T05:10:59.411Z,4.64
2023-04-15T05:13:26.167Z,4.70
2023-04-15T05:15:52.768Z,4.67
2023-04-15T05:18:19.399Z,4.69
2023-04-15T05:20:46.318Z,4.68
2023-04-15T05:23:12.962Z,4.70
2023-04-15T05:25:39.439Z,4.68
2023-04-15T05:28:06.589Z,4.69
2023-04-15T05:30:33.142Z,4.73
2023-04-15T05:32:59.822Z,4.70
2023-04-15T05:35:27.179Z,4.70
2023-04-15T05:37:53.696Z,4.74
2023-04-15T05:40:20.231Z,4.72
2023-04-15T05:42:46.794Z,4.81
2023-04-15T05:45:13.691Z,4.85
2023-04-15T05:47:40.255Z,4.83
2023-04-15T05:50:07.346Z,4.89
2023-04-15T05:52:34.043Z,4.87
2023-04-15T05:55:00.918Z,4.91
2023-04-15T05:57:27.451Z,4.96
2023-04-15T05:59:54.102Z,4.99
2023-04-15T06:02:21.191Z,5.01
2023-04-15T06:04:48.091Z,5.03
2023-04-15T06:07:14.729Z,5.09
2023-04-15T06:09:41.273Z,5.12
2023-04-15T06:12:12.100Z,5.22
2023-04-15T06:14:39.427Z,5.30
2023-04-15T06:17:06.281Z,5.40
2023-04-15T06:19:33.389Z,5.44
2023-04-15T06:22:00.253Z,5.54
2023-04-15T06:24:26.796Z,5.72
2023-04-15T06:26:53.316Z,5.79
2023-04-15T06:29:19.894Z,5.96
2023-04-15T06:31:48.259Z,6.12
2023-04-15T06:34:14.817Z,6.29
2023-04-15T06:36:41.363Z,6.60
2023-04-15T06:39:07.936Z,6.98
2023-04-15T06:41:35.508Z,7.42
2023-04-15T06:44:02.136Z,7.64
2023-04-15T06:46:28.700Z,7.97
2023-04-15T06:48:55.227Z,8.26
2023-04-15T06:51:22.397Z,8.65
2023-04-15T06:53:48.889Z,8.78
2023-04-15T06:56:15.897Z,8.91
2023-04-15T06:58:42.411Z,9.07
2023-04-15T07:01:09.001Z,9.17
2023-04-15T07:03:35.782Z,9.18
2023-04-15T07:06:06.406Z,9.36
2023-04-15T07:08:33.781Z,9.43
2023-04-15T07:11:01.449Z,9.30
2023-04-15T07:13:28.040Z,9.47
2023-04-15T07:15:54.631Z,9.44
2023-04-15T07:18:21.283Z,9.79
2023-04-15T07:20:48.123Z,9.92
2023-04-15T07:23:14.693Z,10.46
2023-04-15T07:25:41.209Z,10.52
2023-04-15T07:28:07.779Z,10.62
2023-04-15T07:30:34.597Z,10.69
2023-04-15T07:33:02.190Z,10.68
2023-04-15T07:35:29.428Z,10.71
2023-04-15T07:37:56.277Z,10.68
2023-04-15T07:40:23.012Z,10.75
2023-04-15T07:42:49.970Z,10.78
2023-04-15T07:45:16.990Z,10.85
2023-04-15T07:47:43.564Z,10.70
2023-04-15T07:50:11.476Z,11.10
2023-04-15T07:52:40.809Z,11.22
2023-04-15T07:55:08.688Z,11.26
2023-04-15T07:57:36.298Z,11.20
2023-04-15T08:00:05.826Z,11.38
2023-04-15T08:02:32.756Z,11.75
2023-04-15T08:04:59.889Z,11.67
2023-04-15T08:07:26.571Z,11.18
2023-04-15T08:09:53.122Z,11.31
2023-04-15T08:12:19.772Z,11.16
2023-04-15T08:14:46.998Z,11.37
2023-04-15T08:17:13.587Z,11.49
2023-04-15T08:19:40.865Z,11.70
2023-04-15T08:22:10.309Z,11.57
2023-04-15T08:24:42.719Z,11.79
2023-04-15T08:27:09.311Z,11.61
2023-04-15T08:29:35.867Z,11.54
2023-04-15T08:32:02.773Z,11.62
2023-04-15T08:34:29.993Z,11.51
2023-04-15T08:36:56.894Z,11.53
2023-04-15T08:39:24.472Z,11.53
2023-04-15T08:41:56.527Z,11.86
2023-04-15T08:44:24.048Z,12.08
2023-04-15T08:46:52.559Z,12.09
2023-04-15T08:49:19.476Z,12.08
2023-04-15T08:51:46.412Z,11.97
2023-04-15T08:54:13.226Z,11.91
2023-04-15T08:56:40.660Z,11.74
2023-04-15T08:59:07.498Z,11.29
2023-04-15T09:01:34.380Z,11.56
2023-04-15T09:04:03.293Z,11.39
2023-04-15T09:06:29.907Z,11.42
2023-04-15T09:08:56.677Z,11.02
2023-04-15T09:11:23.355Z,11.05
2023-04-15T09:13:49.935Z,10.70
2023-04-15T09:16:16.520Z,10.63
2023-04-15T09:18:43.141Z,11.02
2023-04-15T09:21:11.777Z,11.20
2023-04-15T09:23:40.704Z,11.32
2023-04-15T09:26:07.740Z,11.28
2023-04-15T09:28:42.434Z,11.28
2023-04-15T09:31:10.430Z,11.11
2023-04-15T09:33:55.109Z,11.13
2023-04-15T09:36:21.689Z,11.19
2023-04-15T09:38:58.796Z,11.53
2023-04-15T09:41:26.369Z,11.64
2023-04-15T09:43:53.488Z,11.37
2023-04-15T09:46:20.496Z,11.12
2023-04-15T09:48:47.163Z,11.07
2023-04-15T09:51:14.213Z,10.98
2023-04-15T09:53:40.816Z,10.98
2023-04-15T09:56:08.913Z,10.99
2023-04-15T09:58:36.139Z,11.18
2023-04-15T10:01:06.635Z,11.11
2023-04-15T10:03:36.884Z,10.97
2023-04-15T10:06:05.596Z,11.17
2023-04-15T10:08:34.967Z,11.38
2023-04-15T10:11:05.146Z,11.35
2023-04-15T10:13:37.317Z,11.47
2023-04-15T10:16:12.379Z,11.49
2023-04-15T10:18:44.172Z,11.54
2023-04-15T10:21:11.266Z,11.31
2023-04-15T10:23:38.629Z,11.37
2023-04-15T10:26:06.119Z,11.54
2023-04-15T10:28:32.685Z,11.34
2023-04-15T10:30:59.807Z,11.57
2023-04-15T10:33:27.734Z,11.67
2023-04-15T10:35:56.616Z,11.67
2023-04-15T10:38:32.022Z,11.71
2023-04-15T10:41:21.560Z,11.50
2023-04-15T10:43:51.482Z,11.56
2023-04-15T10:46:45.128Z,11.60
2023-04-15T10:49:14.301Z,11.86
2023-04-15T10:51:46.555Z,11.78
2023-04-15T10:54:32.561Z,12.19
2023-04-15T10:57:02.788Z,12.20
2023-04-15T10:59:34.119Z,11.90
2023-04-15T11:02:02.838Z,11.76
2023-04-15T11:04:51.432Z,11.79
2023-04-15T11:07:46.770Z,11.61
2023-04-15T11:10:25.795Z,11.35
2023-04-15T11:12:53.698Z,11.31
2023-04-15T11:15:30.583Z,11.64
2023-04-15T11:17:58.287Z,11.81
2023-04-15T11:20:25.782Z,11.71
2023-04-15T11:23:08.227Z,11.86
2023-04-15T11:25:40.836Z,11.60
2023-04-15T11:28:10.218Z,11.98
2023-04-15T11:30:38.008Z,12.16
2023-04-15T11:33:06.944Z,11.96
2023-04-15T11:35:33.625Z,11.95
2023-04-15T11:38:04.036Z,11.78
2023-04-15T11:40:31.572Z,11.62
2023-04-15T11:43:18.727Z,11.71
2023-04-15T11:46:01.327Z,11.51
2023-04-15T11:48:35.757Z,11.37
2023-04-15T11:51:04.604Z,11.29
2023-04-15T11:53:48.711Z,11.80
2023-04-15T11:56:21.139Z,11.76
2023-04-15T11:58:50.680Z,12.09
2023-04-15T12:01:17.340Z,12.30
2023-04-15T12:03:47.135Z,11.99
2023-04-15T12:06:19.549Z,11.88
2023-04-15T12:08:55.435Z,11.68
2023-04-15T12:11:30.585Z,11.74
2023-04-15T12:13:59.952Z,11.50
2023-04-15T12:16:28.679Z,11.48
2023-04-15T12:18:58.943Z,11.53
2023-04-15T12:21:27.481Z,11.61
2023-04-15T12:23:56.516Z,11.76
2023-04-15T12:26:28.527Z,11.66
2023-04-15T12:28:57.181Z,11.84
2023-04-15T12:31:24.184Z,11.73
2023-04-15T12:33:51.045Z,11.52
2023-04-15T12:36:17.732Z,11.60
2023-04-15T12:38:44.268Z,11.63
2023-04-15T12:41:10.837Z,11.54
2023-04-15T12:43:37.456Z,11.64
2023-04-15T12:46:05.019Z,11.76
2023-04-15T12:48:31.600Z,12.11
2023-04-15T12:50:58.150Z,12.24
2023-04-15T12:53:24.735Z,11.99
2023-04-15T12:55:51.284Z,11.69
2023-04-15T12:58:18.049Z,11.83
2023-04-15T13:00:44.860Z,11.61
2023-04-15T13:03:11.447Z,11.79
2023-04-15T13:05:39.795Z,11.91
2023-04-15T13:08:06.784Z,11.65
2023-04-15T13:10:36.525Z,11.62
2023-04-15T13:13:03.511Z,11.40
2023-04-15T13:15:30.074Z,11.31
2023-04-15T13:17:56.761Z,11.44
2023-04-15T13:20:23.677Z,11.38
2023-04-15T13:22:50.467Z,11.17
2023-04-15T13:25:17.346Z,10.93
2023-04-15T13:27:44.007Z,10.98
2023-04-15T13:30:10.707Z,10.86
2023-04-15T13:32:37.376Z,10.72
2023-04-15T13:35:05.235Z,10.77
2023-04-15T13:37:31.760Z,10.68
2023-04-15T13:39:58.306Z,10.71
2023-04-15T13:42:25.013Z,10.60
2023-04-15T13:44:51.729Z,10.36
2023-04-15T13:47:20.375Z,10.22
2023-04-15T13:49:46.930Z,10.19
2023-04-15T13:52:13.778Z,10.35
2023-04-15T13:54:40.344Z,10.54
2023-04-15T13:57:07.004Z,10.44
2023-04-15T13:59:34.962Z,10.42
2023-04-15T14:02:01.863Z,10.31
2023-04-15T14:04:28.630Z,10.31
2023-04-15T14:06:56.135Z,10.27
2023-04-15T14:09:26.269Z,10.15
2023-04-15T14:11:53.227Z,9.97
2023-04-15T14:14:19.864Z,9.75
2023-04-15T14:16:46.562Z,9.72
2023-04-15T14:19:13.172Z,9.81
2023-04-15T14:21:39.737Z,9.91
2023-04-15T14:24:06.408Z,9.79
2023-04-15T14:26:33.009Z,9.80
2023-04-15T14:28:59.851Z,9.84
2023-04-15T14:31:26.871Z,9.71
2023-04-15T14:33:55.418Z,9.86
2023-04-15T14:36:21.986Z,9.76
2023-04-15T14:38:51.026Z,9.67
2023-04-15T14:41:17.551Z,9.61
2023-04-15T14:43:44.176Z,9.75
2023-04-15T14:46:11.317Z,9.80
2023-04-15T14:48:38.101Z,9.81
2023-04-15T14:51:04.802Z,9.55
2023-04-15T14:53:31.354Z,9.44
2023-04-15T14:55:57.924Z,9.22
2023-04-15T14:58:24.714Z,9.24
2023-04-15T15:00:51.329Z,9.25
2023-04-15T15:03:18.213Z,9.34
2023-04-15T15:05:46.882Z,9.27
2023-04-15T15:08:14.025Z,9.17
2023-04-15T15:10:48.219Z,9.23
2023-04-15T15:13:15.804Z,9.07
2023-04-15T15:15:42.588Z,9.00
2023-04-15T15:18:10.186Z,8.81
2023-04-15T15:20:36.897Z,9.01
2023-04-15T15:23:03.432Z,8.84
2023-04-15T15:25:30.048Z,9.05
2023-04-15T15:27:57.617Z,8.93
2023-04-15T15:30:24.270Z,9.03
2023-04-15T15:32:51.462Z,8.98
2023-04-15T15:35:18.203Z,8.97
2023-04-15T15:37:45.808Z,8.94
2023-04-15T15:40:12.642Z,8.85
2023-04-15T15:42:39.191Z,8.89
2023-04-15T15:45:06.444Z,8.78
2023-04-15T15:47:33.368Z,8.77
2023-04-15T15:50:02.333Z,8.64
2023-04-15T15:52:30.312Z,8.75
2023-04-15T15:54:56.902Z,8.75
2023-04-15T15:57:23.477Z,8.68
2023-04-15T15:59:53.077Z,8.88
2023-04-15T16:02:37.536Z,8.78
2023-04-15T16:05:11.351Z,8.65
2023-04-15T16:07:37.919Z,8.61
2023-04-15T16:10:04.864Z,8.66
2023-04-15T16:12:32.740Z,8.61
2023-04-15T16:15:01.207Z,8.47
2023-04-15T16:17:27.843Z,8.47
2023-04-15T16:19:58.967Z,8.48
2023-04-15T16:22:27.746Z,8.38
2023-04-15T16:24:54.434Z,8.46
2023-04-15T16:27:21.001Z,8.40
2023-04-15T16:29:47.718Z,8.46
2023-04-15T16:32:16.747Z,8.58
2023-04-15T16:34:43.447Z,8.51
2023-04-15T16:37:09.969Z,8.63
2023-04-15T16:39:36.612Z,8.61
2023-04-15T16:42:03.496Z,8.68
2023-04-15T16:44:30.437Z,8.64
2023-04-15T16:46:57.074Z,8.60
2023-04-15T16:49:23.604Z,8.46
2023-04-15T16:51:50.210Z,8.51
2023-04-15T16:54:16.754Z,8.55
2023-04-15T16:56:43.321Z,8.45
2023-04-15T16:59:09.848Z,8.46
2023-04-15T17:01:39.499Z,8.33
2023-04-15T17:04:07.284Z,8.31
2023-04-15T17:06:33.938Z,8.35
2023-04-15T17:09:00.641Z,8.28
2023-04-15T17:11:28.104Z,8.25
2023-04-15T17:13:54.662Z,8.23
2023-04-15T17:16:21.364Z,8.16
2023-04-15T17:18:50.249Z,8.18
2023-04-15T17:21:17.574Z,8.18
2023-04-15T17:23:44.208Z,8.13
2023-04-15T17:26:11.118Z,8.01
2023-04-15T17:28:38.024Z,8.10
2023-04-15T17:31:05.124Z,7.97
2023-04-15T17:34:00.659Z,7.96
2023-04-15T17:36:18.650Z,7.94
2023-04-15T17:38:45.729Z,7.95
2023-04-15T17:41:12.472Z,7.84
2023-04-15T17:43:39.082Z,7.85
2023-04-15T17:46:07.111Z,7.87
2023-04-15T17:48:34.420Z,7.77
2023-04-15T17:51:01.051Z,7.83
2023-04-15T17:53:27.572Z,7.90
2023-04-15T17:55:54.377Z,7.86
2023-04-15T17:58:20.938Z,7.78
2023-04-15T18:00:48.011Z,7.82
2023-04-15T18:03:14.939Z,7.76
2023-04-15T18:05:42.611Z,7.78
2023-04-15T18:08:09.830Z,7.81
2023-04-15T18:10:37.005Z,7.83
2023-04-15T18:13:03.655Z,7.73
2023-04-15T18:15:31.492Z,7.83
2023-04-15T18:17:59.039Z,7.84
2023-04-15T18:20:25.896Z,7.77
2023-04-15T18:22:52.715Z,7.73
2023-04-15T18:25:19.311Z,7.71
2023-04-15T18:27:46.119Z,7.75
2023-04-15T18:30:13.173Z,7.74
2023-04-15T18:32:39.969Z,7.70
2023-04-15T18:35:06.916Z,7.71
2023-04-15T18:37:33.616Z,7.71
2023-04-15T18:40:00.300Z,7.73
2023-04-15T18:42:26.945Z,7.79
2023-04-15T18:44:53.879Z,7.76
2023-04-15T18:47:20.673Z,7.75
2023-04-15T18:49:47.274Z,7.76
2023-04-15T18:52:13.836Z,7.77
2023-04-15T18:54:40.474Z,7.80
2023-04-15T18:57:07.130Z,7.79
2023-04-15T18:59:33.984Z,7.75
2023-04-15T19:02:01.304Z,7.63
2023-04-15T19:04:29.385Z,7.71
2023-04-15T19:06:56.335Z,7.71
2023-04-15T19:09:22.950Z,7.74
2023-04-15T19:11:49.518Z,7.67
2023-04-15T19:14:17.755Z,7.73
2023-04-15T19:16:44.397Z,7.79
2023-04-15T19:19:14.513Z,7.71
2023-04-15T19:21:41.502Z,7.72
2023-04-15T19:24:08.073Z,7.60
2023-04-15T19:26:34.797Z,7.69
2023-04-15T19:29:01.431Z,7.73
2023-04-15T19:31:27.989Z,7.75
2023-04-15T19:33:54.512Z,7.78
2023-04-15T19:36:21.396Z,7.74
2023-04-15T19:38:48.048Z,7.78
2023-04-15T19:41:15.674Z,7.69
2023-04-15T19:43:42.242Z,7.72
2023-04-15T19:46:08.970Z,7.67
2023-04-15T19:48:36.796Z,7.72
2023-04-15T19:51:03.439Z,7.72
2023-04-15T19:53:30.026Z,7.68
2023-04-15T19:55:56.862Z,7.65
2023-04-15T19:58:23.429Z,7.67
2023-04-15T20:00:50.027Z,7.77
2023-04-15T20:03:17.553Z,7.80
2023-04-15T20:05:44.280Z,7.68
2023-04-15T20:08:10.822Z,7.66
2023-04-15T20:10:37.898Z,7.62
2023-04-15T20:13:04.752Z,7.61
2023-04-15T20:15:32.662Z,7.64
2023-04-15T20:17:59.333Z,7.66
2023-04-15T20:20:26.294Z,7.62
2023-04-15T20:22:53.217Z,7.71
2023-04-15T20:25:19.925Z,7.54
2023-04-15T20:27:46.518Z,7.56
2023-04-15T20:30:13.075Z,7.60
2023-04-15T20:32:39.692Z,7.62
2023-04-15T20:35:07.060Z,7.58
2023-04-15T20:37:34.002Z,7.59
2023-04-15T20:40:01.638Z,7.55
2023-04-15T20:42:32.010Z,7.48
2023-04-15T20:44:58.573Z,7.54
2023-04-15T20:47:25.238Z,7.59
2023-04-15T20:49:51.875Z,7.59
2023-04-15T20:52:18.455Z,7.52
2023-04-15T20:54:45.059Z,7.53
2023-04-15T20:57:11.663Z,7.54
2023-04-15T20:59:38.401Z,7.54
2023-04-15T21:02:05.089Z,7.56
2023-04-15T21:04:31.730Z,7.52
2023-04-15T21:06:58.311Z,7.65
2023-04-15T21:09:25.407Z,7.58
2023-04-15T21:14:21.486Z,7.59
2023-04-15T21:16:48.201Z,7.56
2023-04-15T21:19:15.003Z,7.59
2023-04-15T21:21:41.621Z,7.53
2023-04-15T21:24:08.221Z,7.60
2023-04-15T21:26:36.032Z,7.58
2023-04-15T21:29:03.178Z,7.55
2023-04-15T21:31:30.580Z,7.56
2023-04-15T21:33:57.242Z,7.54
2023-04-15T21:36:23.774Z,7.61
2023-04-15T21:38:50.419Z,7.55
2023-04-15T21:41:16.957Z,7.62
2023-04-15T21:43:43.495Z,7.58
2023-04-15T21:46:23.258Z,7.53
2023-04-15T21:48:52.405Z,7.62
2023-04-15T21:51:19.002Z,7.64
2023-04-15T21:53:45.719Z,7.60
2023-04-15T21:56:12.510Z,7.62
2023-04-15T21:58:39.111Z,7.57
2023-04-15T22:01:05.810Z,7.72
2023-04-15T22:03:34.428Z,7.75
2023-04-15T22:06:04.754Z,7.77
2023-04-15T22:08:41.235Z,7.71
2023-04-15T22:11:08.595Z,7.72
2023-04-15T22:13:35.410Z,7.72
2023-04-15T22:16:02.561Z,7.68
2023-04-15T22:18:29.117Z,7.67
2023-04-15T22:20:56.357Z,7.66
2023-04-15T22:23:22.933Z,7.64
2023-04-15T22:25:49.483Z,7.65
2023-04-15T22:28:16.159Z,7.64
2023-04-15T22:30:43.514Z,7.69
2023-04-15T22:33:10.355Z,7.63
2023-04-15T22:35:37.476Z,7.61
2023-04-15T22:38:05.066Z,7.56
2023-04-15T22:40:31.821Z,7.52
2023-04-15T22:42:58.451Z,7.46
2023-04-15T22:45:24.982Z,7.57
2023-04-15T22:47:51.570Z,7.56
2023-04-15T22:50:18.140Z,7.58
2023-04-15T22:52:46.286Z,7.58
2023-04-15T22:55:13.161Z,7.48
2023-04-15T22:57:39.938Z,7.58
2023-04-15T23:00:07.522Z,7.67
2023-04-15T23:02:34.958Z,7.59
2023-04-15T23:05:03.877Z,7.66
2023-04-15T23:07:39.355Z,7.69
2023-04-15T23:10:06.966Z,7.61
2023-04-15T23:12:33.528Z,7.60
2023-04-15T23:15:00.409Z,7.67
2023-04-15T23:17:27.372Z,7.71
2023-04-15T23:19:54.007Z,7.67
2023-04-15T23:22:20.590Z,7.68
2023-04-15T23:24:47.210Z,7.59
2023-04-15T23:27:13.791Z,7.66
2023-04-15T23:29:40.560Z,7.59
2023-04-15T23:32:07.144Z,7.70
2023-04-15T23:34:33.728Z,7.52
2023-04-15T23:37:00.413Z,7.59
2023-04-15T23:39:26.984Z,7.55
2023-04-15T23:41:53.630Z,7.61
2023-04-15T23:44:20.370Z,7.57
2023-04-15T23:46:47.082Z,7.59
2023-04-15T23:49:13.755Z,7.51
2023-04-15T23:51:40.953Z,7.50
2023-04-15T23:54:07.503Z,7.49
2023-04-15T23:56:34.179Z,7.49
2023-04-15T23:59:00.832Z,7.50
